LFBI 221130Z AUTO 21014KT CAVOK 11/06 Q1032 NOSIG

ElémentsDécodage
LFBI Station météo située sur l'aérodrome de POITIERS Biard
221130Z émis le 22 du mois à 11h30 UTC
AUTO Bulletin édité par un automate
21014KT vent du 210°, 14 noeuds
CAVOK Ceiling And Visibility OK
- Visibilité de 10 Km ou plus
- Pas de nuage au-dessous de 1500m ou au-dessous de l'altitude minimale du secteur la plus élevée (si>1500m) et absence de CB
- pas de temps présent significatif
11/06 température 11°C, point de rosée 06°C
 soit une humidité relative de 71%
Q1032 la pression au niveau de la mer (QNH) est de 1032 hPa
NOSIG Pas de changement significatif prévu au cours des deux heures suivant l'heure de l'observation